createdAt,value
2024-02-23T00:02:24.956Z,96921.66
2024-02-23T00:07:28.690Z,96918.36
2024-02-23T00:12:30.512Z,96916.50
2024-02-23T00:17:32.705Z,96908.67
2024-02-23T00:22:35.404Z,96905.36
2024-02-23T00:27:37.828Z,96911.42
2024-02-23T00:32:39.933Z,96913.54
2024-02-23T00:37:41.977Z,96918.41
2024-02-23T00:42:43.789Z,96921.47
2024-02-23T00:47:48.200Z,96925.80
2024-02-23T00:52:50.202Z,96928.00
2024-02-23T00:57:52.274Z,96934.06
2024-02-23T01:02:54.309Z,96936.35
2024-02-23T01:07:56.346Z,96934.39
2024-02-23T01:12:58.842Z,96925.81
2024-02-23T01:18:00.858Z,96924.48
2024-02-23T01:23:03.136Z,96923.92
2024-02-23T01:28:05.510Z,96921.23
2024-02-23T01:33:07.576Z,96915.35
2024-02-23T01:38:09.511Z,96914.47
2024-02-23T01:43:11.534Z,96911.48
2024-02-23T01:48:14.037Z,96906.27
2024-02-23T01:53:16.971Z,96901.20
2024-02-23T01:58:19.316Z,96902.79
2024-02-23T02:03:21.291Z,96900.34
2024-02-23T02:08:23.503Z,96905.77
2024-02-23T02:13:25.395Z,96901.59
2024-02-23T02:18:27.310Z,96899.79
2024-02-23T02:23:29.248Z,96913.78
2024-02-23T02:28:31.480Z,96930.45
2024-02-23T02:33:33.463Z,96935.88
2024-02-23T02:38:35.655Z,96937.52
2024-02-23T02:43:37.625Z,96941.56
2024-02-23T02:48:39.738Z,96958.04
2024-02-23T02:53:41.780Z,96963.11
2024-02-23T02:58:43.691Z,96961.89
2024-02-23T03:03:45.581Z,96969.45
2024-02-23T03:08:47.479Z,96967.27
2024-02-23T03:13:49.293Z,96975.29
2024-02-23T03:18:51.558Z,96975.06
2024-02-23T03:23:53.397Z,96977.58
2024-02-23T03:28:55.339Z,96978.96
2024-02-23T03:33:57.674Z,96980.61
2024-02-23T03:38:59.571Z,96978.43
2024-02-23T03:44:01.608Z,96981.35
2024-02-23T03:49:03.413Z,96981.82
2024-02-23T03:54:05.432Z,96982.70
2024-02-23T03:59:07.412Z,96991.20
2024-02-23T04:04:09.483Z,96997.84
2024-02-23T04:09:11.809Z,97000.65
2024-02-23T04:14:13.669Z,97005.92
2024-02-23T04:19:15.757Z,97007.45
2024-02-23T04:24:17.589Z,97017.99
2024-02-23T04:29:19.502Z,97016.71
2024-02-23T04:34:21.487Z,97019.91
2024-02-23T04:39:23.810Z,97017.59
2024-02-23T04:44:25.770Z,97022.69
2024-02-23T04:49:27.733Z,97023.77
2024-02-23T04:54:29.793Z,97029.40
2024-02-23T04:59:33.629Z,97038.11
2024-02-23T05:04:35.593Z,97044.91
2024-02-23T05:09:37.497Z,97056.84
2024-02-23T05:14:39.540Z,97056.25
2024-02-23T05:19:41.695Z,97054.23
2024-02-23T05:24:45.562Z,97057.83
2024-02-23T05:29:47.524Z,97064.98
2024-02-23T05:34:52.838Z,97076.02
2024-02-23T05:39:55.184Z,97088.77
2024-02-23T05:44:57.500Z,97102.56
2024-02-23T05:49:59.476Z,97103.64
2024-02-23T05:55:01.802Z,97112.86
2024-02-23T06:00:04.553Z,97118.77
2024-02-23T06:05:14.196Z,97118.91
2024-02-23T06:10:16.313Z,97129.75
2024-02-23T06:15:18.220Z,97145.19
2024-02-23T06:20:21.344Z,97161.15
2024-02-23T06:25:23.387Z,97177.73
2024-02-23T06:30:25.120Z,97193.80
2024-02-23T06:35:27.164Z,97210.55
2024-02-23T06:40:37.660Z,97213.45
2024-02-23T06:45:47.910Z,97218.56
2024-02-23T06:50:50.308Z,97220.98
2024-02-23T06:55:52.332Z,97217.25
2024-02-23T07:00:54.484Z,97215.47
2024-02-23T07:05:56.889Z,97207.44
2024-02-23T07:10:59.144Z,97208.67
2024-02-23T07:16:02.003Z,97212.70
2024-02-23T07:21:04.008Z,97211.98
2024-02-23T07:26:05.865Z,97210.66
2024-02-23T07:31:07.749Z,97215.64
2024-02-23T07:36:15.674Z,97223.54
2024-02-23T07:41:20.651Z,97229.39
2024-02-23T07:46:26.333Z,97236.25
2024-02-23T07:51:29.832Z,97239.09
2024-02-23T07:56:31.890Z,97238.88
2024-02-23T08:01:33.810Z,97247.68
2024-02-23T08:06:35.609Z,97250.70
2024-02-23T08:11:37.812Z,97257.23
2024-02-23T08:16:39.984Z,97257.48
2024-02-23T08:21:42.369Z,97264.80
2024-02-23T08:26:44.239Z,97260.73
2024-02-23T08:31:46.347Z,97262.58
2024-02-23T08:36:48.058Z,97262.73
2024-02-23T08:41:50.214Z,97265.91
2024-02-23T08:46:52.373Z,97268.39
2024-02-23T08:51:54.390Z,97271.90
2024-02-23T08:56:56.376Z,97268.48
2024-02-23T09:01:58.263Z,97266.52
2024-02-23T09:07:00.230Z,97271.06
2024-02-23T09:12:02.273Z,97285.08
2024-02-23T09:17:04.652Z,97293.33
2024-02-23T09:22:06.569Z,97299.78
2024-02-23T09:27:08.827Z,97307.70
2024-02-23T09:32:11.083Z,97308.34
2024-02-23T09:37:13.006Z,97304.59
2024-02-23T09:42:15.910Z,97315.27
2024-02-23T09:47:18.600Z,97329.15
2024-02-23T09:52:22.583Z,97328.80
2024-02-23T09:57:25.316Z,97327.98
2024-02-23T10:02:27.158Z,97329.54
2024-02-23T10:07:29.109Z,97330.06
2024-02-23T10:12:31.079Z,97320.13
2024-02-23T10:17:36.356Z,97325.30
2024-02-23T10:22:39.606Z,97330.64
2024-02-23T10:27:41.987Z,97331.24
2024-02-23T10:32:44.176Z,97331.08
2024-02-23T10:37:51.256Z,97347.56
2024-02-23T10:42:58.083Z,97359.35
2024-02-23T10:48:00.863Z,97372.69
2024-02-23T10:53:10.124Z,97370.67
2024-02-23T10:58:14.366Z,97362.20
2024-02-23T11:03:17.124Z,97355.48
2024-02-23T11:08:20.935Z,97362.58
2024-02-23T11:13:34.880Z,97377.48
2024-02-23T11:18:38.004Z,97395.73
2024-02-23T11:23:44.098Z,97393.90
2024-02-23T11:28:54.986Z,97388.77
2024-02-23T11:33:58.190Z,97394.00
2024-02-23T11:39:01.568Z,97396.80
2024-02-23T11:44:04.774Z,97409.67
2024-02-23T11:49:07.189Z,97415.35
2024-02-23T11:54:10.015Z,97428.63
2024-02-23T11:59:12.017Z,97436.09
2024-02-23T12:04:13.845Z,97439.23
2024-02-23T12:09:16.822Z,97417.37
2024-02-23T12:14:19.161Z,97412.41
2024-02-23T12:19:21.449Z,97418.60
2024-02-23T12:24:24.524Z,97418.63
2024-02-23T12:29:26.827Z,97430.40
2024-02-23T12:34:30.110Z,97426.80
2024-02-23T12:39:33.301Z,97421.16
2024-02-23T12:44:36.275Z,97425.98
2024-02-23T12:49:39.717Z,97426.90
2024-02-23T12:54:43.188Z,97437.96
2024-02-23T12:59:45.254Z,97440.95
2024-02-23T13:04:51.824Z,97437.41
2024-02-23T13:09:53.789Z,97444.63
2024-02-23T13:14:55.581Z,97437.88
2024-02-23T13:20:05.720Z,97432.25
2024-02-23T13:25:13.233Z,97436.42
2024-02-23T13:30:16.687Z,97454.84
2024-02-23T13:35:18.791Z,97463.95
2024-02-23T13:40:20.933Z,97478.90
2024-02-23T13:45:24.703Z,97483.73
2024-02-23T13:50:27.476Z,97488.29
2024-02-23T13:55:29.961Z,97485.13
2024-02-23T14:00:31.981Z,97478.14
2024-02-23T14:05:34.048Z,97477.45
2024-02-23T14:10:36.137Z,97482.38
2024-02-23T14:15:38.004Z,97483.79
2024-02-23T14:20:41.834Z,97492.39
2024-02-23T14:25:43.705Z,97496.84
2024-02-23T14:30:45.633Z,97493.36
2024-02-23T14:35:48.053Z,97476.80
2024-02-23T14:40:50.422Z,97476.30
2024-02-23T14:45:53.879Z,97478.11
2024-02-23T14:50:56.411Z,97484.66
2024-02-23T14:55:58.461Z,97482.80
2024-02-23T15:01:00.671Z,97480.96
2024-02-23T15:06:03.200Z,97480.38
2024-02-23T15:11:06.566Z,97485.04
2024-02-23T15:16:08.630Z,97479.40
2024-02-23T15:21:10.594Z,97482.52
2024-02-23T15:26:12.689Z,97478.33
2024-02-23T15:31:15.016Z,97478.00
2024-02-23T15:36:17.128Z,97479.06
2024-02-23T15:41:19.002Z,97486.58
2024-02-23T15:46:20.866Z,97490.52
2024-02-23T15:51:33.794Z,97493.33
2024-02-23T15:56:44.992Z,97496.69
2024-02-23T16:01:47.101Z,97500.09
2024-02-23T16:06:48.918Z,97502.20
2024-02-23T16:11:51.297Z,97507.95
2024-02-23T16:16:54.695Z,97508.88
2024-02-23T16:21:56.939Z,97517.02
2024-02-23T16:26:58.982Z,97511.17
2024-02-23T16:32:01.146Z,97501.50
2024-02-23T16:37:03.478Z,97490.09
2024-02-23T16:42:06.751Z,97490.80
2024-02-23T16:47:08.610Z,97492.55
2024-02-23T16:52:10.587Z,97494.30
2024-02-23T16:57:12.541Z,97495.28
2024-02-23T17:02:14.483Z,97488.66
2024-02-23T17:07:16.464Z,97493.35
2024-02-23T17:12:21.879Z,97503.33
2024-02-23T17:17:24.008Z,97511.77
2024-02-23T17:22:27.940Z,97510.50
2024-02-23T17:27:29.902Z,97503.92
2024-02-23T17:32:31.946Z,97500.33
2024-02-23T17:37:34.105Z,97513.39
2024-02-23T17:42:36.064Z,97508.42
2024-02-23T17:47:38.702Z,97502.85
2024-02-23T17:52:40.563Z,97503.60
2024-02-23T17:57:42.540Z,97496.89
2024-02-23T18:02:44.698Z,97494.48
2024-02-23T18:07:46.755Z,97491.81
2024-02-23T18:12:48.733Z,97491.60
2024-02-23T18:17:52.632Z,97489.41
2024-02-23T18:22:54.789Z,97486.72
2024-02-23T18:27:56.817Z,97481.52
2024-02-23T18:32:58.943Z,97477.13
2024-02-23T18:38:01.307Z,97479.64
2024-02-23T18:43:05.037Z,97482.02
2024-02-23T18:48:07.872Z,97481.83
2024-02-23T18:53:09.875Z,97477.92
2024-02-23T18:58:13.419Z,97472.56
2024-02-23T19:03:15.277Z,97465.95
2024-02-23T19:08:17.266Z,97463.15
2024-02-23T19:13:19.211Z,97462.83
2024-02-23T19:18:21.849Z,97466.06
2024-02-23T19:23:23.957Z,97457.31
2024-02-23T19:28:25.901Z,97457.13
2024-02-23T19:33:27.734Z,97460.65
2024-02-23T19:38:29.647Z,97451.69
2024-02-23T19:43:31.553Z,97439.98
2024-02-23T19:48:33.492Z,97437.58
2024-02-23T19:53:35.775Z,97435.60
2024-02-23T19:58:37.801Z,97430.18
2024-02-23T20:03:39.734Z,97426.46
2024-02-23T20:08:41.854Z,97426.27
2024-02-23T20:13:44.038Z,97402.42
2024-02-23T20:18:46.184Z,97392.60
2024-02-23T20:23:48.262Z,97392.77
2024-02-23T20:28:50.191Z,97395.52
2024-02-23T20:33:52.181Z,97388.83
2024-02-23T20:38:54.372Z,97382.80
2024-02-23T20:43:59.089Z,97379.84
2024-02-23T20:49:02.657Z,97374.74
2024-02-23T20:54:05.390Z,97372.00
2024-02-23T20:59:07.317Z,97380.27
2024-02-23T21:04:09.345Z,97379.38
2024-02-23T21:09:13.015Z,97373.27
2024-02-23T21:14:16.166Z,97377.86
2024-02-23T21:19:18.050Z,97369.12
2024-02-23T21:24:19.903Z,97368.55
2024-02-23T21:29:22.074Z,97366.48
2024-02-23T21:34:24.164Z,97366.77
2024-02-23T21:39:26.300Z,97352.75
2024-02-23T21:44:28.288Z,97349.13
2024-02-23T21:49:30.209Z,97336.95
2024-02-23T21:54:32.959Z,97334.05
2024-02-23T21:59:34.978Z,97330.34
2024-02-23T22:04:39.731Z,97319.56
2024-02-23T22:09:46.083Z,97309.70
2024-02-23T22:14:48.119Z,97304.06
2024-02-23T22:19:50.156Z,97301.57
2024-02-23T22:24:52.252Z,97303.60
2024-02-23T22:29:54.276Z,97305.51
2024-02-23T22:34:56.365Z,97305.58
2024-02-23T22:39:58.423Z,97308.20
2024-02-23T22:45:00.484Z,97308.60
2024-02-23T22:50:03.463Z,97307.27
2024-02-23T22:55:06.228Z,97304.67
2024-02-23T23:00:10.791Z,97305.19
2024-02-23T23:05:13.013Z,97298.61
2024-02-23T23:10:14.956Z,97297.42
2024-02-23T23:15:16.948Z,97290.48
2024-02-23T23:20:20.674Z,97294.41
2024-02-23T23:25:22.708Z,97289.55
2024-02-23T23:30:24.644Z,97290.98
2024-02-23T23:35:26.742Z,97286.46
2024-02-23T23:40:28.631Z,97275.05
2024-02-23T23:45:30.796Z,97272.88
2024-02-23T23:50:32.862Z,97262.83
2024-02-23T23:55:35.101Z,97259.09
